Latest Weather Observations for Port Lincoln Airport

IDS60801

Issued at 2:31 am CST Friday 1 July 2016 (issued every 30 minutes, with the page automatically refreshed every 10 minutes)

About weather observations | Map of weather stations | Latest weather observations for SA | Other Formats
Station Details ID: 018192 Name: PORT LINCOLN AWS Lat: -34.60 Lon: 135.88 Height: 8.5 m
Data from the previous 72 hours. | See also: Recent months at Port Lincoln Airport
Date/Time
CST
Temp
°C
App
Temp
°C
Dew
Point
°C
Rel
Hum
%
Delta-T
°C
Wind Press
QNH
hPa
Press
MSL
hPa
Rain since
9am
mm
Dir  Spd
km/h
Gust
km/h
Spd
kts
Gust
kts
01/02:30am 10.4 7.0 7.8 84 1.2 WNW 15 17 8 9 1023.1 1023.1 0.2
01/02:00am 9.3 6.2 7.3 87 0.9 W 13 17 7 9 1023.1 1023.1 0.2
01/01:30am 8.9 5.3 6.9 87 0.9 WNW 15 17 8 9 1023.1 1023.1 0.2
01/01:00am 10.5 6.9 8.3 86 1.1 WNW 17 22 9 12 1023.1 1023.1 0.2
01/12:30am 9.5 6.1 7.8 89 0.8 W 15 20 8 11 1023.4 1023.4 0.2
01/12:00am 9.2 5.8 7.5 89 0.8 W 15 17 8 9 1023.2 1023.2 0.2
 
Date/Time
CST
Temp
°C
App
Temp
°C
Dew
Point
°C
Rel
Hum
%
Delta-T
°C
Wind Press
QNH
hPa
Press
MSL
hPa
Rain since
9am
mm
Dir  Spd
km/h
Gust
km/h
Spd
kts
Gust
kts
30/11:30pm 10.2 5.5 7.6 84 1.2 W 22 28 12 15 1023.1 1023.1 0.2
30/11:00pm 8.2 4.9 6.3 88 0.9 W 13 15 7 8 1022.7 1022.7 0.2
30/10:30pm 9.3 5.5 7.7 90 0.8 W 17 19 9 10 1022.2 1022.2 0.2
30/10:00pm 9.0 5.6 7.5 90 0.7 WNW 15 19 8 10 1021.9 1021.9 0.2
30/09:30pm 9.6 7.1 8.2 91 0.7 WNW 11 17 6 9 1021.9 1021.9 0.2
30/09:00pm 9.8 6.0 7.7 87 1.0 WSW 17 24 9 13 1022.1 1022.1 0.2
30/08:30pm 10.1 6.6 7.2 82 1.4 W 15 17 8 9 1021.4 1021.4 0.2
30/08:00pm 10.4 6.5 6.9 79 1.7 W 17 20 9 11 1021.0 1021.0 0.2
30/07:30pm 9.0 5.7 6.4 84 1.2 WNW 13 17 7 9 1020.7 1020.7 0.2
30/07:00pm 10.3 6.7 6.6 78 1.7 WSW 15 19 8 10 1020.4 1020.4 0.2
30/06:30pm 9.1 6.9 6.4 83 1.2 SW 7 13 4 7 1020.0 1020.0 0.2
30/06:00pm 9.8 5.3 6.2 78 1.7 W 19 24 10 13 1019.5 1019.5 0.2
30/05:30pm 9.8 6.0 7.6 86 1.0 WSW 17 20 9 11 1019.1 1019.1 0.2
30/05:00pm 11.0 6.5 7.1 77 1.9 W 20 26 11 14 1018.7 1018.7 0.2
30/04:30pm 11.3 6.0 6.6 73 2.2 W 24 28 13 15 1018.4 1018.4 0.2
30/04:09pm 12.8 6.5 5.7 62 3.3 SW 28 43 15 23 1018.3 1018.3 0.2
30/04:00pm 12.8 9.2 6.8 67 2.9 SW 15 20 8 11 1018.1 1018.1 0.2
30/03:30pm 12.5 7.4 6.1 65 3.0 WSW 22 30 12 16 1017.6 1017.6 0.2
30/03:00pm 12.7 6.9 6.1 64 3.1 SW 26 41 14 22 1017.3 1017.3 0.2
30/02:30pm 13.1 6.2 4.8 57 3.8 SW 30 43 16 23 1016.8 1016.8 0.2
30/02:00pm 12.7 6.2 6.3 65 3.0 SW 30 44 16 24 1016.8 1016.8 0.2
30/01:35pm 14.3 7.2 6.6 60 3.7 SW 33 52 18 28 1016.5 1016.5 0.2
30/01:30pm 14.0 5.9 7.1 63 3.4 SW 39 52 21 28 1016.5 1016.5 0.2
30/01:02pm 13.4 6.3 3.5 51 4.4 WSW 30 48 16 26 1016.3 1016.3 0.2
30/01:00pm 13.9 7.1 5.0 55 4.1 WSW 30 46 16 25 1016.4 1016.4 0.2
30/12:30pm 13.7 5.0 4.0 52 4.4 SW 39 57 21 31 1016.3 1016.3 0.2
30/12:24pm 14.0 5.7 4.0 51 4.6 WSW 37 57 20 31 1016.2 1016.2 0.2
30/12:00pm 13.3 5.5 5.0 57 3.8 WSW 35 48 19 26 1016.4 1016.4 0.2
30/11:35am 14.2 7.0 5.8 57 4.0 SW 33 52 18 28 1016.5 1016.5 0.2
30/11:30am 14.1 6.5 5.7 57 4.0 SW 35 52 19 28 1016.4 1016.4 0.2
30/11:10am 14.3 6.9 6.9 61 3.6 WSW 35 54 19 29 1016.1 1016.1 0.2
30/11:00am 13.5 6.4 6.6 63 3.3 WSW 33 46 18 25 1016.0 1016.0 0.2
30/10:38am 13.5 6.7 7.9 69 2.8 WSW 33 54 18 29 1015.7 1015.7 0.2
30/10:30am 13.6 7.3 9.1 74 2.3 WSW 32 46 17 25 1015.6 1015.6 0.2
30/10:00am 12.7 8.0 10.6 87 1.1 WSW 26 32 14 17 1015.3 1015.3 0.2
30/09:54am 12.4 7.3 10.6 89 0.9 WSW 28 37 15 20 1015.2 1015.2 0.2
30/09:38am 11.9 5.3 10.1 89 0.9 WSW 35 54 19 29 1015.2 1015.2 0.2
30/09:34am 12.7 6.8 10.6 87 1.1 WSW 32 54 17 29 1015.0 1015.0 0.2
30/09:30am 12.7 7.3 10.8 88 1.0 WSW 30 41 16 22 1014.7 1014.7 0.0
30/09:17am 12.7 7.4 11.1 90 0.8 WSW 30 43 16 23 1014.5 1014.5 0.0
30/09:00am 12.4 5.9 10.5 88 1.0 WSW 35 56 19 30 1014.3 1014.3 4.2
30/08:58am 12.7 6.6 10.4 86 1.2 WSW 33 54 18 29 1014.3 1014.3 4.0
30/08:30am 12.9 6.8 9.7 81 1.6 WSW 32 41 17 22 1013.6 1013.6 3.8
30/08:00am 12.4 7.3 10.5 88 1.0 W 28 35 15 19 1013.1 1013.1 3.8
30/07:55am 12.2 7.1 10.6 90 0.8 W 28 37 15 20 1013.2 1013.2 3.8
30/07:44am 12.4 6.6 10.8 90 0.8 W 32 43 17 23 1013.2 1013.2 3.8
30/07:30am 12.2 7.5 10.6 90 0.8 W 26 37 14 20 1012.9 1012.9 3.6
30/07:12am 12.0 5.9 10.4 90 0.8 W 33 52 18 28 1012.7 1012.7 3.2
30/07:01am 12.0 3.7 10.2 89 0.9 W 44 63 24 34 1012.5 1012.5 3.2
30/07:00am 12.2 3.6 10.3 88 1.0 W 46 63 25 34 1012.5 1012.5 3.2
30/06:58am 12.2 4.2 10.3 88 1.0 W 43 63 23 34 1012.5 1012.5 3.2
30/06:52am 12.7 7.0 9.7 82 1.5 WNW 30 61 16 33 1012.1 1012.1 3.2
30/06:30am 12.9 8.3 9.7 81 1.6 WNW 24 32 13 17 1011.6 1011.6 3.0
30/06:00am 12.9 8.9 10.6 86 1.2 W 22 30 12 16 1011.4 1011.4 3.0
30/05:30am 12.4 7.9 10.1 86 1.2 W 24 30 13 16 1011.2 1011.2 3.0
30/05:00am 12.8 7.6 10.3 85 1.3 W 28 39 15 21 1011.1 1011.1 3.0
30/04:30am 13.0 8.4 10.9 87 1.1 W 26 35 14 19 1011.1 1011.1 3.0
30/04:00am 13.2 8.2 11.1 87 1.1 WNW 28 37 15 20 1011.2 1011.2 3.0
30/03:35am 13.5 8.7 11.7 89 1.0 WNW 28 43 15 23 1011.0 1011.0 3.0
30/03:30am 13.4 7.8 11.6 89 1.0 WNW 32 44 17 24 1011.0 1011.0 3.0
30/03:21am 13.8 9.5 12.2 90 0.9 WNW 26 43 14 23 1011.1 1011.1 3.0
30/03:00am 13.7 10.5 11.9 89 1.0 WNW 20 30 11 16 1011.0 1011.0 2.6
30/02:30am 13.5 10.3 11.9 90 0.9 WNW 20 30 11 16 1011.2 1011.2 2.6
30/02:00am 13.7 10.8 12.4 92 0.7 NW 19 26 10 14 1011.4 1011.4 2.4
30/01:30am 13.5 9.1 11.6 88 1.0 WNW 26 41 14 22 1011.2 1011.2 2.4
30/01:00am 11.5 8.5 10.7 95 0.4 NNW 17 24 9 13 1011.4 1011.4 2.2
30/12:30am 11.1 6.5 9.7 91 0.7 NNW 24 32 13 17 1011.8 1011.8 2.2
30/12:05am 11.4 5.9 9.1 86 1.1 NW 28 39 15 21 1012.2 1012.2 2.2
30/12:00am 11.3 5.0 9.0 86 1.1 NW 32 43 17 23 1012.2 1012.2 2.2
 
Date/Time
CST
Temp
°C
App
Temp
°C
Dew
Point
°C
Rel
Hum
%
Delta-T
°C
Wind Press
QNH
hPa
Press
MSL
hPa
Rain since
9am
mm
Dir  Spd
km/h
Gust
km/h
Spd
kts
Gust
kts
29/11:37pm 11.2 4.6 8.6 84 1.3 NW 33 43 18 23 1012.2 1012.2 1.0
29/11:30pm 11.6 5.1 8.1 79 1.7 NW 32 39 17 21 1012.1 1012.1 0.4
29/11:00pm 12.9 5.9 6.9 67 2.9 NW 33 44 18 24 1012.1 1012.1 0.2
29/10:30pm 12.8 5.8 7.0 68 2.8 NNW 33 46 18 25 1011.7 1011.7 0.2
29/10:00pm 12.7 5.4 7.2 69 2.7 NNW 35 46 19 25 1011.9 1011.9 0.2
29/09:30pm 13.2 7.3 7.4 68 2.8 NNW 28 44 15 24 1012.2 1012.2 0.2
29/09:00pm 13.3 8.8 6.9 65 3.1 NNW 20 30 11 16 1012.6 1012.6 0.2
29/08:30pm 12.4 8.4 6.7 68 2.7 N 17 26 9 14 1012.9 1012.9 0.2
29/08:00pm 12.7 8.3 6.7 67 2.9 N 19 24 10 13 1013.1 1013.1 0.2
29/07:30pm 12.0 8.4 6.9 71 2.4 N 15 20 8 11 1013.6 1013.6 0.2
29/07:00pm 12.1 8.5 6.8 70 2.5 NNW 15 20 8 11 1013.7 1013.7 0.2
29/06:30pm 12.8 8.9 7.0 68 2.8 NNW 17 20 9 11 1013.9 1013.9 0.2
29/06:00pm 12.7 9.2 7.4 70 2.6 N 15 19 8 10 1013.9 1013.9 0.2
29/05:30pm 13.0 10.0 7.5 69 2.7 NNW 13 17 7 9 1013.9 1013.9 0.2
29/05:00pm 14.6 10.8 7.6 63 3.5 NNW 17 26 9 14 1014.0 1014.0 0.2
29/04:30pm 15.5 10.7 7.5 59 4.0 NNW 22 30 12 16 1014.0 1014.0 0.2
29/04:00pm 16.0 9.7 7.2 56 4.4 NNW 30 50 16 27 1014.1 1014.1 0.2
29/03:53pm 16.1 9.7 7.1 55 4.5 N 30 50 16 27 1014.0 1014.0 0.2
29/03:30pm 16.1 9.3 7.6 57 4.2 N 33 46 18 25 1013.9 1013.9 0.2
29/03:00pm 16.2 9.5 7.4 56 4.4 N 32 43 17 23 1014.2 1014.2 0.2
29/02:30pm 16.2 9.5 7.4 56 4.4 NNW 32 48 17 26 1014.6 1014.6 0.2
29/02:00pm 16.2 9.4 7.9 58 4.2 N 33 48 18 26 1014.9 1014.9 0.2
29/01:43pm 16.1 9.2 7.1 55 4.5 N 33 54 18 29 1015.1 1015.1 0.2
29/01:30pm 15.9 8.7 7.7 58 4.1 N 35 48 19 26 1015.3 1015.3 0.2
29/01:00pm 15.8 8.6 7.6 58 4.1 N 35 46 19 25 1015.8 1015.8 0.2
29/12:30pm 15.5 8.3 7.5 59 4.0 N 35 46 19 25 1016.8 1016.8 0.0
29/12:00pm 14.9 7.2 7.2 60 3.8 N 37 50 20 27 1017.5 1017.5 0.0
29/11:41am 14.6 7.3 7.2 61 3.6 N 35 54 19 29 1018.1 1018.1 0.0
29/11:30am 14.4 5.9 7.0 61 3.6 N 41 54 22 29 1018.2 1018.2 0.0
29/11:13am 14.1 6.4 6.9 62 3.5 N 37 56 20 30 1018.4 1018.4 0.0
29/11:00am 13.9 5.8 7.0 63 3.4 N 39 56 21 30 1018.7 1018.7 0.0
29/10:30am 13.5 6.1 6.8 64 3.2 N 35 50 19 27 1019.2 1019.2 0.0
29/10:02am 12.6 5.5 6.2 65 3.0 N 33 52 18 28 1019.8 1019.8 0.0
29/10:00am 12.5 5.4 6.5 67 2.9 N 33 44 18 24 1019.8 1019.8 0.0
29/09:41am 12.2 5.3 6.3 67 2.8 N 32 50 17 27 1020.1 1020.1 0.0
29/09:30am 12.2 4.7 6.3 67 2.8 N 35 52 19 28 1020.2 1020.2 0.0
29/09:24am 12.2 5.3 6.3 67 2.8 N 32 52 17 28 1020.3 1020.3 0.0
29/09:00am 11.7 5.2 6.6 71 2.4 N 30 41 16 22 1020.5 1020.5 0.0
29/08:30am 11.4 5.2 6.3 71 2.4 N 28 35 15 19 1020.6 1020.6 0.0
29/08:00am 11.2 5.0 6.1 71 2.4 N 28 37 15 20 1020.6 1020.6 0.0
29/07:30am 11.1 5.2 5.8 70 2.4 N 26 39 14 21 1020.7 1020.7 0.0
29/07:00am 11.3 5.9 6.2 71 2.4 N 24 32 13 17 1021.0 1021.0 0.0
29/06:30am 10.6 6.1 6.0 73 2.1 N 19 26 10 14 1021.0 1021.0 0.0
29/06:00am 10.4 5.7 6.0 74 2.0 N 20 30 11 16 1021.1 1021.1 0.0
29/05:30am 10.3 5.8 5.9 74 2.0 N 19 24 10 13 1021.2 1021.2 0.0
29/05:00am 9.9 6.1 5.7 75 1.9 N 15 22 8 12 1021.4 1021.4 0.0
29/04:30am 9.6 6.1 5.4 75 1.9 N 13 17 7 9 1021.5 1021.5 0.0
29/04:00am 8.3 5.8 4.5 77 1.7 N 7 9 4 5 1021.8 1021.8 0.0
29/03:30am 8.3 5.0 4.3 76 1.7 NNW 11 15 6 8 1022.1 1022.1 0.0
29/03:00am 6.8 3.2 3.1 77 1.5 NNW 11 13 6 7 1022.6 1022.6 0.0
29/02:30am 7.9 4.2 4.3 78 1.6 NW 13 15 7 8 1022.6 1022.6 0.0
29/02:00am 6.6 2.7 3.4 80 1.3 NNW 13 17 7 9 1022.9 1022.9 0.0
29/01:30am 7.3 3.5 3.7 78 1.5 NW 13 19 7 10 1023.1 1023.1 0.0
29/01:00am 7.1 3.3 4.1 81 1.3 NW 13 17 7 9 1023.4 1023.4 0.0
29/12:30am 7.0 3.6 4.1 82 1.2 NNW 11 15 6 8 1023.6 1023.6 0.0
29/12:00am 6.9 3.1 3.7 80 1.4 NNW 13 20 7 11 1023.8 1023.8 0.0
 
Date/Time
CST
Temp
°C
App
Temp
°C
Dew
Point
°C
Rel
Hum
%
Delta-T
°C
Wind Press
QNH
hPa
Press
MSL
hPa
Rain since
9am
mm
Dir  Spd
km/h
Gust
km/h
Spd
kts
Gust
kts
28/11:30pm 7.8 3.3 4.0 77 1.6 NNW 17 20 9 11 1023.9 1023.9 0.0
28/11:00pm 7.8 3.3 4.4 79 1.5 NNW 17 20 9 11 1024.2 1024.2 0.0
28/10:30pm 8.3 3.3 4.5 77 1.7 NNW 20 22 11 12 1024.2 1024.2 0.0
28/10:00pm 8.0 4.0 4.9 81 1.4 NW 15 19 8 10 1024.5 1024.5 0.0
28/09:30pm 8.0 4.5 5.5 84 1.1 NNW 13 15 7 8 1024.9 1024.9 0.0
28/09:00pm 6.7 3.5 4.9 88 0.8 NW 11 15 6 8 1024.9 1024.9 0.0
28/08:30pm 8.1 4.7 6.1 87 0.9 WNW 13 15 7 8 1024.8 1024.8 0.0
28/08:00pm 7.9 4.5 6.0 88 0.9 WNW 13 15 7 8 1024.7 1024.7 0.0
28/07:30pm 8.1 4.7 6.1 87 0.9 WNW 13 13 7 7 1024.7 1024.7 0.0
28/07:00pm 8.0 5.3 5.8 86 1.0 WNW 9 11 5 6 1024.6 1024.6 0.0
28/06:30pm 8.3 5.3 5.8 84 1.1 NW 11 13 6 7 1024.5 1024.5 0.0
28/06:00pm 9.7 7.2 6.6 81 1.4 NNW 9 13 5 7 1024.3 1024.3 0.0
28/05:30pm 11.4 8.5 6.5 72 2.3 N 11 11 6 6 1024.1 1024.1 0.0
28/05:00pm 12.2 9.3 6.7 69 2.6 N 11 13 6 7 1024.2 1024.2 0.0
28/04:30pm 13.9 9.7 5.8 58 3.8 NW 17 20 9 11 1024.3 1024.3 0.0
28/04:00pm 15.9 11.1 5.8 51 4.9 NW 20 30 11 16 1024.1 1024.1 0.0
28/03:30pm 16.0 10.6 6.2 52 4.7 NW 24 33 13 18 1024.1 1024.1 0.0
28/03:00pm 16.0 9.8 6.2 52 4.7 NW 28 37 15 20 1024.2 1024.2 0.0
28/02:30pm 16.4 10.5 7.3 55 4.5 NW 28 39 15 21 1024.3 1024.3 0.0
28/02:00pm 16.5 11.1 8.2 58 4.2 NW 26 37 14 20 1024.4 1024.4 0.0
28/01:30pm 15.5 9.3 9.2 66 3.2 NW 32 43 17 23 1024.7 1024.7 0.0
28/01:00pm 15.6 9.0 8.4 62 3.6 NW 33 44 18 24 1025.1 1025.1 0.0
28/12:30pm 15.3 9.0 9.0 66 3.2 NNW 32 41 17 22 1025.5 1025.5 0.0
28/12:00pm 15.1 9.3 8.1 63 3.5 NNW 28 39 15 21 1026.0 1026.0 0.0
28/11:30am 14.6 9.4 8.8 68 2.9 NNW 26 37 14 20 1026.4 1026.4 0.0
28/11:00am 14.0 8.6 8.2 68 2.9 NNW 26 35 14 19 1026.5 1026.5 0.0
28/10:30am 13.7 8.8 8.3 70 2.7 NNW 24 33 13 18 1026.5 1026.5 0.0
28/10:00am 12.8 7.9 8.5 75 2.1 NNW 24 32 13 17 1026.4 1026.4 0.0
28/09:30am 12.1 6.9 8.8 80 1.6 NNW 26 35 14 19 1026.3 1026.3 0.0
28/09:00am 10.9 5.2 8.3 84 1.3 NNW 28 39 15 21 1025.9 1025.9 0.2
28/08:30am 10.1 4.6 7.7 85 1.1 NNW 26 33 14 18 1025.6 1025.6 0.2
28/08:00am 9.2 2.9 7.3 88 0.9 NNW 30 37 16 20 1025.3 1025.3 0.2
28/07:30am 9.1 3.5 7.2 88 0.9 NW 26 35 14 19 1025.0 1025.0 0.2
28/07:00am 9.7 3.9 7.8 88 0.9 NW 28 37 15 20 1024.5 1024.5 0.2
28/06:30am 8.7 5.2 7.3 91 0.7 NW 15 20 8 11 1024.3 1024.3 0.2
28/06:00am 8.9 6.2 7.5 91 0.7 NNW 11 15 6 8 1024.1 1024.1 0.2
28/05:30am 9.3 6.3 7.9 91 0.7 NW 13 17 7 9 1024.0 1024.0 0.2
28/05:00am 8.7 5.7 7.6 93 0.5 NW 13 17 7 9 1023.6 1023.6 0.2
28/04:30am 8.6 7.6 7.5 93 0.5 NE 2 9 1 5 1023.5 1023.5 0.2
28/04:00am 8.4 6.6 7.2 92 0.6 E 6 9 3 5 1023.6 1023.6 0.2
28/03:30am 8.5 6.2 7.6 94 0.4 NW 9 13 5 7 1023.6 1023.6 0.2
28/03:00am 9.1 7.5 8.0 93 0.5 NNW 6 13 3 7 1023.6 1023.6 0.2

Other Formats:

Comma delimited format used in spreadsheet applications
http://www.bom.gov.au/fwo/IDS60801/IDS60801.95661.axf

JavaScript Object Notation format (JSON) in row-major order
http://www.bom.gov.au/fwo/IDS60801/IDS60801.95661.json